WetterOnline ( https://www.wetteronline.de )

Wetter aktuell Fulda

Aktuelles Wetter: Wasserkuppe (925m)

6-stündlich | Neueste Meldungen
Ortszeit Temperatur Wetter
Do, 12.12. 7:00 -1.4° C Nebel mit Raueis
Do, 12.12. 1:00 -2.6° C leichter Schneefall
Mi, 11.12. 19:00 -2.7° C Schneefall
Mi, 11.12. 13:00 -1.8° C bedeckt
Mi, 11.12. 7:00 -3.1° C bewölkt
Mi, 11.12. 1:00 -3.0° C bewölkt
Di, 10.12. 19:00 -2.7° C bewölkt
Di, 10.12. 13:00 -2.0° C Nebel mit Raueis
Ortszeit Temperatur Wetter
Do, 12.12. 9:00 -1.1° C leichter Schneefall
Do, 12.12. 8:50 -1.1° C gefrierender Regen
Do, 12.12. 8:40 -1.2° C Nebel
Do, 12.12. 8:30 -1.1° C einzelne Schneesterne
Do, 12.12. 8:20 -1.1° C Nebel
Do, 12.12. 8:10 -1.1° C Nebel
Do, 12.12. 8:00 -1.2° C einzelne Schneesterne
Do, 12.12. 7:30 -1.2° C Nebel mit Raueis
Do, 12.12. 7:00 -1.4° C Nebel mit Raueis
Do, 12.12. 6:30 -1.5° C Nebel mit Raueis
Do, 12.12. 6:00 -1.6° C Nebel mit Raueis
Ortszeit Relative Feuchte Sichtweite
Do, 12.12. 7:00 100% 100 m
Do, 12.12. 1:00 99% 100 m
Mi, 11.12. 19:00 99% 0.6 km
Mi, 11.12. 13:00 70% 60 km
Mi, 11.12. 7:00 84% 45 km
Mi, 11.12. 1:00 91% 30 km
Di, 10.12. 19:00 97% 12 km
Di, 10.12. 13:00 97% 0.3 km
Ortszeit Relative Feuchte Sichtweite
Do, 12.12. 9:00 100% 100 m
Do, 12.12. 8:50 100% -
Do, 12.12. 8:40 100% -
Do, 12.12. 8:30 100% 100 m
Do, 12.12. 8:20 100% -
Do, 12.12. 8:10 99% -
Do, 12.12. 8:00 99% 100 m
Do, 12.12. 7:30 100% 100 m
Do, 12.12. 7:00 100% 100 m
Do, 12.12. 6:30 100% 100 m
Do, 12.12. 6:00 99% 100 m
Ortszeit Niederschlagsmenge Niederschlagsart
Do, 12.12. 7:00 11 l/m2 in 12 Std. Schnee, Nebel
Do, 12.12. 1:00 9 l/m2 in 6 Std. Schnee
Mi, 11.12. 19:00 1 l/m2 in 12 Std. Schnee
Mi, 11.12. 13:00 0.0 l/m2 in 6 Std. -
Mi, 11.12. 7:00 0.0 l/m2 in 12 Std. -
Mi, 11.12. 1:00 0.0 l/m2 in 6 Std. -
Di, 10.12. 19:00 0.0 l/m2 in 12 Std. -
Di, 10.12. 13:00 0.0 l/m2 in 6 Std. Nebel
Ortszeit Niederschlagsmenge Niederschlagsart
Do, 12.12. 9:00 0.1 l/m2 in 1 Std. Nebel
Do, 12.12. 8:50 keine Meldung -
Do, 12.12. 8:40 keine Meldung -
Do, 12.12. 8:30 0.1 l/m2 in 1 Std. -
Do, 12.12. 8:20 keine Meldung -
Do, 12.12. 8:10 keine Meldung -
Do, 12.12. 8:00 0.1 l/m2 in 1 Std. Nebel
Do, 12.12. 7:30 0.0 l/m2 in 1 Std. -
Do, 12.12. 7:00 0.0 l/m2 in 1 Std. Schnee, Nebel
Do, 12.12. 6:30 0.0 l/m2 in 1 Std. -
Do, 12.12. 6:00 0.0 l/m2 in 1 Std. Nebel
Ortszeit Stärke Spitze Richtung
km/h Bft. km/h Grad Sektor
Do, 12.12. 7:00 24 4 39 230° SW
Do, 12.12. 1:00 18 3 47 250° W
Mi, 11.12. 19:00 33 5 59 190° S
Mi, 11.12. 13:00 36 5 43 180° S
Mi, 11.12. 7:00 28 4 57 200° S
Mi, 11.12. 1:00 47 6 61 200° S
Di, 10.12. 19:00 37 5 54 200° S
Di, 10.12. 13:00 11 2 29 200° S
Ortszeit Stärke Spitze Richtung
km/h Bft. km/h Grad Sektor
Do, 12.12. 9:00 25 4 36 220° SW
Do, 12.12. 8:50 25 4 - 220° SW
Do, 12.12. 8:40 25 4 - 210° SW
Do, 12.12. 8:30 24 4 31 220° SW
Do, 12.12. 8:20 24 4 - 220° SW
Do, 12.12. 8:10 24 4 - 220° SW
Do, 12.12. 8:00 25 4 32 230° SW
Do, 12.12. 7:30 22 4 32 230° SW
Do, 12.12. 7:00 24 4 37 230° SW
Do, 12.12. 6:30 26 4 37 240° SW
Do, 12.12. 6:00 25 4 36 250° W
Ortszeit Untergrenze Bedeckung Gattung
total tief tief mittel hoch
Do, 12.12. 7:00 <30 m 8/8 0/8 - - -
Do, 12.12. 1:00 <30 m 8/8 0/8 - - -
Mi, 11.12. 19:00 <30 m 8/8 0/8 - - -
Mi, 11.12. 13:00 1200 m 8/8 7/8 Sc - -
Mi, 11.12. 7:00 1200 m 7/8 2/8 Sc As -
Mi, 11.12. 1:00 3300 m 8/8 5/8 - - -
Di, 10.12. 19:00 90 m 7/8 7/8 - - -
Di, 10.12. 13:00 <30 m 8/8 0/8 - - -
Ortszeit Bedeckungsgrad in Achtel und Wolkenuntergrenze
Do, 12.12. 9:00 8
Do, 12.12. 8:50 8(<30m)
Do, 12.12. 8:40 8(<30m)
Do, 12.12. 8:30 8(<30m)
Do, 12.12. 8:20 8(<30m)
Do, 12.12. 8:10 8(<30m)
Do, 12.12. 8:00 8(<30m)
Do, 12.12. 7:30 8(<30m)
Do, 12.12. 7:00 8(<30m)
Do, 12.12. 6:30 8(<30m)
Do, 12.12. 6:00 8(<30m)
Ortszeit Stationsdruck (hPa) Tendenz (hPa in 3 Std.)
Do, 12.12. 7:00 896 - 0,3
Do, 12.12. 1:00 897 - 0,5
Mi, 11.12. 19:00 898 - 1,1
Mi, 11.12. 13:00 901 - 2,6
Mi, 11.12. 7:00 906 - 1,2
Mi, 11.12. 1:00 910 - 1,8
Di, 10.12. 19:00 913 - 1,0
Di, 10.12. 13:00 916 + 0,4
Ortszeit Stationsdruck (hPa) Tendenz (hPa in 3 Std.)
Do, 12.12. 9:00 897 + 0,6
Do, 12.12. 8:50 897 keine Meldung
Do, 12.12. 8:40 896 keine Meldung
Do, 12.12. 8:30 896 + 0,4
Do, 12.12. 8:20 896 keine Meldung
Do, 12.12. 8:10 896 keine Meldung
Do, 12.12. 8:00 896 + 0,2
Do, 12.12. 7:30 896 0,0
Do, 12.12. 7:00 896 - 0,3
Do, 12.12. 6:30 896 - 0,5
Do, 12.12. 6:00 896 - 1,0
Ortszeit Schneehöhe (cm)
Do, 12.12. 7:00 10
Do, 12.12. 1:00 9
Mi, 11.12. 19:00 2
Mi, 11.12. 13:00 1
Mi, 11.12. 7:00 1
Mi, 11.12. 1:00 1
Di, 10.12. 19:00 1
Di, 10.12. 13:00 1
Ortszeit Schneehöhe (cm)
Do, 12.12. 9:00 10
Do, 12.12. 8:50 10
Do, 12.12. 8:40 10
Do, 12.12. 8:30 10
Do, 12.12. 8:20 10
Do, 12.12. 8:10 10
Do, 12.12. 8:00 10
Do, 12.12. 7:30 10
Do, 12.12. 7:00 10
Do, 12.12. 6:30 10
Do, 12.12. 6:00 10
Link zu dieser Seite / Seite empfehlen

Das Wetter in ...